^^
Your Local Weather - Clay, NY Station Historical Data
Daily Summary for August 3, 2017 Units:  English    Metric   Both
« Previous Day
Next Day »
Daily Weekly Monthly Yearly Custom
  High: Low: Average:
Temperature: 84.9 °F 63.4 °F 73.7 °F
Dew Point: 69.7 °F 60.9 °F 63.9 °F
Humidity: 93% 48% 73%
Wind Speed: 2.0mph 0.0mph 0.5mph
Wind Gust: 9.0mph - -
Wind- - SSE
Pressure: 30.05 in 29.94 in -
Precipitation: 1.06 in    
Historical Graphs
 
 
Tabular Data for August 3, 2017
Time Temperature Dew Point Pressure Wind Wind Speed Wind Gust Humidity Rainfall Rate (Hourly) solar
00:00 72.1 °F 62.6 °F 29.99 in SW 1.0 mph 1.0 mph 72% 0.00 in 0 W/m2
00:06 71.9 °F 62.8 °F 29.99 in SW 1.0 mph 1.0 mph 73% 0.00 in 0 W/m2
00:12 71.7 °F 62.6 °F 29.99 in SW 1.0 mph 1.0 mph 73% 0.00 in 0 W/m2
00:18 71.6 °F 62.5 °F 30.00 in Calm   2.0 mph 73% 0.00 in 0 W/m2
00:22 71.4 °F 62.7 °F 30.00 in Calm   1.0 mph 74% 0.00 in 0 W/m2
00:28 71.4 °F 62.7 °F 30.00 in South 2.0 mph 2.0 mph 74% 0.00 in 0 W/m2
00:30 71.4 °F 62.7 °F 30.00 in West 2.0 mph 2.0 mph 74% 0.00 in 0 W/m2
00:36 71.3 °F 62.6 °F 30.00 in SSW 2.0 mph 3.0 mph 74% 0.00 in 0 W/m2
00:42 71.1 °F 62.8 °F 29.99 in SW 1.0 mph 2.0 mph 75% 0.00 in 0 W/m2
00:48 71.0 °F 62.7 °F 29.99 in SW 1.0 mph 2.0 mph 75% 0.00 in 0 W/m2
00:54 70.9 °F 62.6 °F 29.99 in Calm   1.0 mph 75% 0.00 in 0 W/m2
01:00 70.6 °F 62.3 °F 29.98 in Calm     75% 0.00 in 0 W/m2
01:06 70.4 °F 62.5 °F 29.99 in Calm   1.0 mph 76% 0.00 in 0 W/m2
01:12 70.0 °F 62.1 °F 29.99 in Calm   1.0 mph 76% 0.00 in 0 W/m2
01:18 69.9 °F 62.4 °F 29.99 in SW 1.0 mph 2.0 mph 77% 0.00 in 0 W/m2
01:24 69.8 °F 62.6 °F 29.99 in SW 1.0 mph 2.0 mph 78% 0.00 in 0 W/m2
01:30 69.5 °F 62.3 °F 29.99 in Calm   3.0 mph 78% 0.00 in 0 W/m2
01:36 69.2 °F 62.8 °F 30.00 in North 2.0 mph 5.0 mph 80% 0.00 in 0 W/m2
01:42 68.8 °F 62.4 °F 29.99 in North 2.0 mph 2.0 mph 80% 0.00 in 0 W/m2
01:48 68.6 °F 62.5 °F 29.99 in North 1.0 mph 2.0 mph 81% 0.00 in 0 W/m2
01:54 68.4 °F 62.7 °F 29.99 in Calm   1.0 mph 82% 0.00 in 0 W/m2
02:00 68.0 °F 62.3 °F 29.99 in Calm     82% 0.00 in 0 W/m2
02:06 67.5 °F 62.2 °F 29.99 in Calm   1.0 mph 83% 0.00 in 0 W/m2
02:12 67.3 °F 62.3 °F 29.99 in Calm   1.0 mph 84% 0.00 in 0 W/m2
02:18 67.0 °F 62.0 °F 29.99 in Calm   1.0 mph 84% 0.00 in 0 W/m2
02:24 66.8 °F 61.8 °F 29.99 in Calm     84% 0.00 in 0 W/m2
02:30 66.5 °F 61.8 °F 29.99 in Calm     85% 0.00 in 0 W/m2
02:36 66.4 °F 62.1 °F 29.99 in Calm     86% 0.00 in 0 W/m2
02:42 66.1 °F 61.8 °F 29.99 in Calm     86% 0.00 in 0 W/m2
02:48 66.1 °F 62.1 °F 29.99 in Calm     87% 0.00 in 0 W/m2
02:54 66.0 °F 62.0 °F 29.99 in Calm     87% 0.00 in 0 W/m2
03:00 66.0 °F 62.3 °F 29.99 in Calm     88% 0.00 in 0 W/m2
03:06 65.9 °F 62.2 °F 29.99 in Calm     88% 0.00 in 0 W/m2
03:12 65.9 °F 62.2 °F 30.00 in Calm     88% 0.00 in 0 W/m2
03:18 66.0 °F 62.3 °F 30.00 in Calm     88% 0.00 in 0 W/m2
03:24 66.0 °F 62.3 °F 30.00 in Calm     88% 0.00 in 0 W/m2
03:30 66.1 °F 62.4 °F 30.00 in Calm     88% 0.00 in 0 W/m2
03:36 66.1 °F 62.4 °F 30.00 in Calm     88% 0.00 in 0 W/m2
03:42 66.0 °F 62.3 °F 30.00 in Calm     88% 0.00 in 0 W/m2
03:48 66.0 °F 62.3 °F 30.00 in Calm     88% 0.00 in 0 W/m2
03:54 66.0 °F 62.7 °F 30.00 in Calm     89% 0.00 in 0 W/m2
04:00 66.0 °F 62.7 °F 30.00 in Calm     89% 0.00 in 0 W/m2
04:06 65.9 °F 62.6 °F 30.00 in Calm     89% 0.00 in 0 W/m2
04:12 65.8 °F 62.5 °F 30.00 in Calm     89% 0.00 in 0 W/m2
04:18 65.6 °F 62.3 °F 30.00 in Calm     89% 0.00 in 0 W/m2
04:24 65.5 °F 62.2 °F 30.00 in Calm     89% 0.00 in 0 W/m2
04:30 65.4 °F 62.1 °F 30.00 in Calm     89% 0.00 in 0 W/m2
04:36 65.2 °F 62.2 °F 30.00 in Calm     90% 0.00 in 0 W/m2
04:42 65.1 °F 62.1 °F 30.00 in Calm     90% 0.00 in 0 W/m2
04:48 65.0 °F 62.0 °F 30.00 in Calm     90% 0.00 in 0 W/m2
04:54 64.8 °F 61.8 °F 30.00 in Calm     90% 0.00 in 0 W/m2
05:00 64.7 °F 61.7 °F 30.00 in Calm     90% 0.00 in 0 W/m2
05:06 64.6 °F 61.6 °F 30.00 in Calm     90% 0.00 in 0 W/m2
05:12 64.5 °F 61.8 °F 30.00 in Calm     91% 0.00 in 0 W/m2
05:18 64.3 °F 61.6 °F 30.00 in Calm     91% 0.00 in 0 W/m2
05:24 64.3 °F 61.6 °F 30.01 in Calm     91% 0.00 in 0 W/m2
05:30 64.2 °F 61.5 °F 30.01 in Calm     91% 0.00 in 0 W/m2
05:36 64.1 °F 61.4 °F 30.01 in Calm     91% 0.00 in 0 W/m2
05:42 64.0 °F 61.3 °F 30.01 in Calm     91% 0.00 in 0 W/m2
05:48 63.9 °F 61.2 °F 30.01 in Calm     91% 0.00 in 0 W/m2
05:54 63.8 °F 61.1 °F 30.02 in Calm     91% 0.00 in 0 W/m2
06:00 63.7 °F 61.0 °F 30.02 in Calm     91% 0.00 in 0 W/m2
06:06 63.6 °F 60.9 °F 30.02 in Calm     91% 0.00 in 5 W/m2
06:12 63.6 °F 61.2 °F 30.02 in Calm     92% 0.00 in 7 W/m2
06:18 63.5 °F 61.1 °F 30.02 in Calm     92% 0.00 in 11 W/m2
06:24 63.5 °F 61.1 °F 30.02 in Calm     92% 0.00 in 14 W/m2
06:30 63.4 °F 61.0 °F 30.02 in Calm     92% 0.00 in 21 W/m2
06:36 63.4 °F 61.0 °F 30.02 in Calm     92% 0.00 in 32 W/m2
06:42 63.6 °F 61.2 °F 30.02 in Calm     92% 0.00 in 51 W/m2
06:48 63.9 °F 61.5 °F 30.02 in Calm     92% 0.00 in 60 W/m2
06:54 64.2 °F 62.1 °F 30.02 in Calm     93% 0.00 in 37 W/m2
07:00 64.3 °F 62.2 °F 30.02 in Calm     93% 0.00 in 44 W/m2
07:06 64.6 °F 62.5 °F 30.02 in Calm     93% 0.00 in 76 W/m2
07:12 64.8 °F 62.7 °F 30.02 in Calm     93% 0.00 in 54 W/m2
07:18 64.9 °F 62.8 °F 30.03 in Calm     93% 0.00 in 63 W/m2
07:24 65.2 °F 63.1 °F 30.03 in Calm     93% 0.00 in 200 W/m2
07:30 66.3 °F 64.2 °F 30.03 in Calm     93% 0.00 in 209 W/m2
07:36 67.2 °F 65.1 °F 30.03 in Calm     93% 0.00 in 95 W/m2
07:42 67.8 °F 65.4 °F 30.03 in Calm     92% 0.00 in 116 W/m2
07:48 68.8 °F 66.1 °F 30.03 in Calm     91% 0.00 in 255 W/m2
07:54 69.2 °F 64.8 °F 30.03 in Calm     86% 0.00 in 165 W/m2
08:00 70.0 °F 65.3 °F 30.03 in Calm     85% 0.00 in 306 W/m2
08:06 71.1 °F 66.4 °F 30.03 in Calm     85% 0.00 in 295 W/m2
08:12 71.3 °F 64.1 °F 30.03 in Calm     78% 0.00 in 323 W/m2
08:18 72.1 °F 64.5 °F 30.03 in Calm     77% 0.00 in 336 W/m2
08:24 72.4 °F 63.6 °F 30.04 in Calm   1.0 mph 74% 0.00 in 353 W/m2
08:30 72.6 °F 63.1 °F 30.04 in Calm     72% 0.00 in 373 W/m2
08:36 72.5 °F 63.0 °F 30.04 in SSE 1.0 mph 2.0 mph 72% 0.00 in 387 W/m2
08:42 72.8 °F 62.8 °F 30.04 in SSE 1.0 mph 1.0 mph 71% 0.00 in 406 W/m2
08:48 73.8 °F 63.8 °F 30.04 in Calm   1.0 mph 71% 0.00 in 427 W/m2
08:54 73.9 °F 63.1 °F 30.04 in SSE 1.0 mph 1.0 mph 69% 0.00 in 441 W/m2
09:00 74.1 °F 64.1 °F 30.05 in Calm     71% 0.00 in 439 W/m2
09:06 74.3 °F 63.1 °F 30.04 in SSE 1.0 mph 3.0 mph 68% 0.00 in 475 W/m2
09:12 74.9 °F 64.0 °F 30.04 in SSE 1.0 mph 1.0 mph 69% 0.00 in 497 W/m2
09:14 75.2 °F 64.3 °F 30.05 in Calm   1.0 mph 69% 0.00 in 504 W/m2
09:20 76.1 °F 63.9 °F 30.05 in Calm     66% 0.00 in 524 W/m2
09:26 76.7 °F 64.9 °F 30.05 in Calm   3.0 mph 67% 0.00 in 513 W/m2
09:32 76.8 °F 64.6 °F 30.05 in SSE 1.0 mph 1.0 mph 66% 0.00 in 559 W/m2
09:38 76.8 °F 64.1 °F 30.05 in SSE 1.0 mph 1.0 mph 65% 0.00 in 564 W/m2
09:44 77.3 °F 64.2 °F 30.05 in Calm   3.0 mph 64% 0.00 in 601 W/m2
09:50 77.0 °F 63.9 °F 30.05 in SSE 1.0 mph 1.0 mph 64% 0.00 in 563 W/m2
09:56 77.0 °F 63.4 °F 30.05 in Calm   3.0 mph 63% 0.00 in 615 W/m2
10:02 77.7 °F 64.1 °F 30.05 in Calm     63% 0.00 in 638 W/m2
10:08 77.8 °F 64.6 °F 30.05 in SSW 1.0 mph 1.0 mph 64% 0.00 in 654 W/m2
10:16 77.5 °F 65.2 °F 30.05 in SW 1.0 mph 1.0 mph 66% 0.00 in 675 W/m2
10:18 77.7 °F 64.5 °F 30.05 in Calm   1.0 mph 64% 0.00 in 677 W/m2
10:24 78.0 °F 65.3 °F 30.05 in Calm     65% 0.00 in 694 W/m2
10:30 78.4 °F 64.3 °F 30.05 in SSE 1.0 mph 1.0 mph 62% 0.00 in 707 W/m2
10:36 78.5 °F 64.4 °F 30.05 in SSE 1.0 mph 1.0 mph 62% 0.00 in 722 W/m2
10:42 78.9 °F 64.8 °F 30.05 in Calm     62% 0.00 in 740 W/m2
10:48 78.9 °F 65.2 °F 30.05 in SSE 1.0 mph 3.0 mph 63% 0.00 in 752 W/m2
10:54 78.9 °F 65.2 °F 30.05 in SSE 2.0 mph 2.0 mph 63% 0.00 in 761 W/m2
11:00 79.1 °F 63.5 °F 30.05 in SE 2.0 mph 2.0 mph 59% 0.00 in 777 W/m2
11:06 79.5 °F 64.4 °F 30.05 in SE 1.0 mph 2.0 mph 60% 0.00 in 775 W/m2
11:12 79.8 °F 64.2 °F 30.05 in ESE 1.0 mph 2.0 mph 59% 0.00 in 798 W/m2
11:18 79.9 °F 65.7 °F 30.05 in South 1.0 mph 4.0 mph 62% 0.00 in 816 W/m2
11:24 79.8 °F 64.2 °F 30.05 in South 1.0 mph 2.0 mph 59% 0.00 in 844 W/m2
11:30 79.8 °F 64.7 °F 30.04 in South 1.0 mph 3.0 mph 60% 0.00 in 853 W/m2
11:36 80.3 °F 66.1 °F 30.05 in SSW 2.0 mph 3.0 mph 62% 0.00 in 856 W/m2
11:42 80.3 °F 63.7 °F 30.04 in SSE 1.0 mph 2.0 mph 57% 0.00 in 816 W/m2
11:48 80.1 °F 64.5 °F 30.04 in SSE 1.0 mph 2.0 mph 59% 0.00 in 881 W/m2
11:54 80.4 °F 64.8 °F 30.04 in SSE 1.0 mph 5.0 mph 59% 0.00 in 809 W/m2
12:00 80.5 °F 64.4 °F 30.04 in SSE 1.0 mph 2.0 mph 58% 0.00 in 905 W/m2
12:06 80.9 °F 65.2 °F 30.03 in NW 1.0 mph 2.0 mph 59% 0.00 in 918 W/m2
12:12 81.5 °F 66.3 °F 30.03 in NW 1.0 mph 1.0 mph 60% 0.00 in 949 W/m2
12:18 81.9 °F 66.6 °F 30.03 in NNE 1.0 mph 5.0 mph 60% 0.00 in 949 W/m2
12:24 81.4 °F 63.7 °F 30.03 in NE 2.0 mph 3.0 mph 55% 0.00 in 969 W/m2
12:30 81.4 °F 65.7 °F 30.03 in North 2.0 mph 2.0 mph 59% 0.00 in 969 W/m2
12:36 81.8 °F 65.1 °F 30.03 in North 1.0 mph 2.0 mph 57% 0.00 in 278 W/m2
12:42 81.8 °F 67.0 °F 30.03 in Calm     61% 0.00 in 216 W/m2
12:48 82.0 °F 67.2 °F 30.03 in Calm   3.0 mph 61% 0.00 in 930 W/m2
12:54 82.5 °F 64.2 °F 30.02 in NW 1.0 mph 1.0 mph 54% 0.00 in 932 W/m2
13:00 83.1 °F 66.8 °F 30.02 in NNW 1.0 mph 1.0 mph 58% 0.00 in 919 W/m2
13:06 83.3 °F 63.8 °F 30.02 in WSW 1.0 mph 1.0 mph 52% 0.00 in 969 W/m2
13:12 82.7 °F 63.8 °F 30.02 in South 1.0 mph 1.0 mph 53% 0.00 in 977 W/m2
13:18 82.6 °F 65.8 °F 30.01 in SW 1.0 mph 1.0 mph 57% 0.00 in 946 W/m2
13:24 82.8 °F 64.5 °F 30.01 in SE 1.0 mph 5.0 mph 54% 0.00 in 962 W/m2
13:30 83.1 °F 65.8 °F 30.01 in SE 1.0 mph 1.0 mph 56% 0.00 in 169 W/m2
13:36 82.4 °F 65.1 °F 30.00 in WSW 1.0 mph 2.0 mph 56% 0.00 in 986 W/m2
13:42 83.0 °F 65.2 °F 30.00 in WNW 1.0 mph 1.0 mph 55% 0.00 in 947 W/m2
13:48 83.1 °F 64.2 °F 30.00 in Calm   1.0 mph 53% 0.00 in 972 W/m2
13:54 82.5 °F 63.1 °F 30.00 in NNE 1.0 mph 4.0 mph 52% 0.00 in 272 W/m2
14:00 82.8 °F 64.5 °F 29.99 in NE 1.0 mph 1.0 mph 54% 0.00 in 939 W/m2
14:06 83.5 °F 67.2 °F 29.99 in South 1.0 mph 3.0 mph 58% 0.00 in 976 W/m2
14:12 83.0 °F 63.6 °F 29.99 in SE 2.0 mph 2.0 mph 52% 0.00 in 1002 W/m2
14:18 83.2 °F 64.8 °F 29.98 in SSE 1.0 mph 2.0 mph 54% 0.00 in 947 W/m2
14:24 83.2 °F 64.3 °F 29.98 in SE 1.0 mph 3.0 mph 53% 0.00 in 193 W/m2
14:30 82.3 °F 62.9 °F 29.98 in ESE 1.0 mph 2.0 mph 52% 0.00 in 209 W/m2
14:36 82.1 °F 66.4 °F 29.98 in Calm   2.0 mph 59% 0.00 in 241 W/m2
14:42 82.2 °F 65.4 °F 29.98 in Calm     57% 0.00 in 979 W/m2
14:48 83.4 °F 65.0 °F 29.97 in SSE 1.0 mph 3.0 mph 54% 0.00 in 921 W/m2
14:54 83.4 °F 63.9 °F 29.97 in SSE 1.0 mph 1.0 mph 52% 0.00 in 949 W/m2
15:00 83.7 °F 63.1 °F 29.97 in Calm     50% 0.00 in 909 W/m2
15:06 83.3 °F 62.7 °F 29.97 in South 1.0 mph 1.0 mph 50% 0.00 in 241 W/m2
15:12 83.6 °F 63.0 °F 29.97 in Calm     50% 0.00 in 900 W/m2
15:18 83.8 °F 62.6 °F 29.97 in Calm   2.0 mph 49% 0.00 in 893 W/m2
15:24 84.0 °F 62.2 °F 29.97 in Calm   4.0 mph 48% 0.00 in 165 W/m2
15:30 84.9 °F 63.0 °F 29.97 in NNW 1.0 mph 4.0 mph 48% 0.00 in 833 W/m2
15:36 84.2 °F 65.2 °F 29.96 in ENE 2.0 mph 4.0 mph 53% 0.00 in 803 W/m2
15:42 83.7 °F 66.8 °F 29.95 in East 2.0 mph 3.0 mph 57% 0.00 in 788 W/m2
15:48 84.1 °F 65.7 °F 29.95 in NNE 2.0 mph 6.0 mph 54% 0.00 in 766 W/m2
15:54 83.9 °F 66.0 °F 29.95 in NNE 2.0 mph 4.0 mph 55% 0.00 in 759 W/m2
16:00 84.2 °F 67.3 °F 29.95 in North 2.0 mph 3.0 mph 57% 0.00 in 747 W/m2
16:06 84.3 °F 65.8 °F 29.95 in North 2.0 mph 3.0 mph 54% 0.00 in 715 W/m2
16:12 84.2 °F 66.3 °F 29.95 in North 2.0 mph 4.0 mph 55% 0.00 in 172 W/m2
16:18 83.9 °F 66.0 °F 29.95 in North 2.0 mph 4.0 mph 55% 0.00 in 684 W/m2
16:24 83.8 °F 65.9 °F 29.95 in NE 2.0 mph 3.0 mph 55% 0.00 in 668 W/m2
16:30 84.1 °F 66.7 °F 29.94 in North 2.0 mph 2.0 mph 56% 0.00 in 624 W/m2
16:36 83.8 °F 67.4 °F 29.94 in NE 2.0 mph 4.0 mph 58% 0.00 in 624 W/m2
16:42 83.9 °F 64.9 °F 29.94 in ENE 1.0 mph 1.0 mph 53% 0.00 in 348 W/m2
16:48 83.2 °F 65.9 °F 29.94 in NE 2.0 mph 4.0 mph 56% 0.00 in 524 W/m2
16:54 83.5 °F 66.2 °F 29.94 in ENE 2.0 mph 3.0 mph 56% 0.00 in 592 W/m2
17:00 84.0 °F 65.0 °F 29.94 in East 1.0 mph 1.0 mph 53% 0.00 in 547 W/m2
17:06 83.7 °F 65.3 °F 29.94 in ESE 1.0 mph 4.0 mph 54% 0.00 in 141 W/m2
17:12 83.3 °F 65.4 °F 29.94 in ESE 1.0 mph 2.0 mph 55% 0.00 in 132 W/m2
17:18 83.0 °F 65.7 °F 29.94 in ESE 1.0 mph 2.0 mph 56% 0.00 in 120 W/m2
17:24 83.1 °F 66.3 °F 29.94 in ENE 1.0 mph 2.0 mph 57% 0.00 in 120 W/m2
17:30 83.0 °F 66.2 °F 29.94 in East 1.0 mph 2.0 mph 57% 0.00 in 84 W/m2
17:36 83.0 °F 65.2 °F 29.94 in ESE 1.0 mph 3.0 mph 55% 0.00 in 76 W/m2
17:42 82.7 °F 64.4 °F 29.94 in Calm   2.0 mph 54% 0.00 in 100 W/m2
17:50 83.0 °F 65.2 °F 29.94 in East 1.0 mph 1.0 mph 55% 0.00 in 104 W/m2
17:56 83.2 °F 64.8 °F 29.94 in NNW 1.0 mph 1.0 mph 54% 0.00 in 116 W/m2
18:02 83.3 °F 65.4 °F 29.94 in NNE 2.0 mph 4.0 mph 55% 0.00 in 102 W/m2
18:08 83.4 °F 65.5 °F 29.94 in NNE 2.0 mph 4.0 mph 55% 0.00 in 90 W/m2
18:14 83.3 °F 65.4 °F 29.94 in NE 2.0 mph 4.0 mph 55% 0.00 in 77 W/m2
18:20 83.1 °F 64.2 °F 29.94 in NNE 2.0 mph 3.0 mph 53% 0.00 in 60 W/m2
18:26 82.8 °F 65.5 °F 29.94 in NNE 2.0 mph 3.0 mph 56% 0.00 in 63 W/m2
18:32 82.5 °F 65.7 °F 29.94 in Calm   1.0 mph 57% 0.00 in 53 W/m2
18:38 82.0 °F 65.8 °F 29.95 in Calm   1.0 mph 58% 0.00 in 70 W/m2
18:44 81.8 °F 65.1 °F 29.95 in Calm     57% 0.00 in 69 W/m2
18:50 81.6 °F 67.3 °F 29.95 in Calm     62% 0.00 in 58 W/m2
18:58 80.5 °F 67.2 °F 29.95 in Calm     64% 0.00 in 46 W/m2
19:04 80.0 °F 68.9 °F 29.96 in Calm     69% 0.00 in 47 W/m2
19:10 79.2 °F 68.6 °F 29.96 in Calm     70% 0.00 in 37 W/m2
19:16 78.7 °F 68.5 °F 29.96 in Calm     71% 0.00 in 42 W/m2
19:22 78.1 °F 67.5 °F 29.96 in Calm     70% 0.00 in 44 W/m2
19:28 77.8 °F 67.6 °F 29.96 in Calm     71% 0.00 in 30 W/m2
19:34 77.7 °F 68.4 °F 29.95 in Calm     73% 0.00 in 26 W/m2
19:40 77.6 °F 68.3 °F 29.95 in Calm     73% 0.00 in 18 W/m2
19:46 77.5 °F 69.7 °F 29.95 in Calm     77% 0.00 in 11 W/m2
19:52 77.3 °F 69.1 °F 29.95 in Calm   1.0 mph 76% 0.00 in 5 W/m2
19:58 77.9 °F 65.6 °F 29.97 in SSE 2.0 mph 9.0 mph 66% 0.00 in 0 W/m2
21:09 65.6 °F 62.6 °F 29.96 in North 1.0 mph 1.0 mph 90% 0.00 in 0 W/m2
21:15 65.4 °F 62.4 °F 29.97 in Calm     90% 0.00 in 0 W/m2
21:22 65.1 °F 62.1 °F 29.97 in Calm     90% 0.00 in 0 W/m2
21:28 65.1 °F 62.1 °F 29.97 in Calm     90% 0.00 in 0 W/m2
21:33 65.1 °F 62.4 °F 29.97 in North 1.0 mph 1.0 mph 91% 0.00 in 0 W/m2
21:40 65.1 °F 62.4 °F 29.98 in Calm   1.0 mph 91% 0.00 in 0 W/m2
21:45 65.3 °F 62.6 °F 29.97 in Calm   1.0 mph 91% 0.00 in 0 W/m2
21:52 65.4 °F 63.0 °F 29.99 in Calm   1.0 mph 92% 0.00 in 0 W/m2
21:58 65.5 °F 63.1 °F 29.99 in Calm     92% 0.00 in 0 W/m2
22:04 65.5 °F 63.1 °F 29.98 in North 1.0 mph 2.0 mph 92% 0.00 in 0 W/m2
22:10 65.5 °F 63.1 °F 29.98 in Calm     92% 0.00 in 0 W/m2
22:15 65.6 °F 63.2 °F 29.97 in Calm   1.0 mph 92% 0.00 in 0 W/m2
22:22 65.5 °F 63.1 °F 29.97 in Calm     92% 0.00 in 0 W/m2
22:28 65.5 °F 63.1 °F 29.97 in Calm     92% 0.00 in 0 W/m2
22:33 65.6 °F 63.5 °F 29.97 in Calm     93% 0.00 in 0 W/m2
22:39 65.6 °F 63.5 °F 29.96 in Calm     93% 0.00 in 0 W/m2
22:46 65.5 °F 63.4 °F 29.96 in Calm     93% 0.00 in 0 W/m2
22:52 65.3 °F 63.2 °F 29.96 in Calm     93% 0.00 in 0 W/m2
22:58 65.2 °F 63.1 °F 29.96 in Calm     93% 0.00 in 0 W/m2
23:03 65.2 °F 63.1 °F 29.96 in Calm     93% 0.00 in 0 W/m2
23:10 65.2 °F 63.1 °F 29.96 in Calm     93% 0.00 in 0 W/m2
23:18 65.0 °F 62.9 °F 29.96 in Calm     93% 0.00 in 0 W/m2
23:23 64.9 °F 62.8 °F 29.95 in Calm     93% 0.00 in 0 W/m2
23:30 64.8 °F 62.7 °F 29.95 in Calm     93% 0.00 in 0 W/m2
23:33 64.8 °F 62.7 °F 29.95 in Calm     93% 0.00 in 0 W/m2
23:39 64.7 °F 62.6 °F 29.95 in Calm     93% 0.00 in 0 W/m2
23:45 64.7 °F 62.6 °F 29.95 in Calm     93% 0.00 in 0 W/m2
23:49 64.7 °F 62.6 °F 29.95 in Calm     93% 0.00 in 0 W/m2
23:52 64.8 °F 62.7 °F 29.95 in Calm     93% 0.00 in 0 W/m2
23:58 64.6 °F 62.5 °F 29.95 in Calm     93% 0.00 in 0 W/m2
Country Meadow, Clay, NY, USA
Compliments of Weather Underground - 2 mb